createdAt,value
2023-08-03T05:18:58.477Z,98001.23
2023-08-03T05:21:26.502Z,98006.35
2023-08-03T05:23:55.353Z,98006.86
2023-08-03T05:26:58.912Z,98015.07
2023-08-03T05:29:31.436Z,98017.25
2023-08-03T05:32:28.070Z,98015.46
2023-08-03T05:34:57.116Z,98015.43
2023-08-03T05:37:48.379Z,98016.14
2023-08-03T05:40:15.972Z,98013.98
2023-08-03T05:43:32.891Z,98023.21
2023-08-03T05:46:39.685Z,98016.77
2023-08-03T05:49:10.654Z,98020.59
2023-08-03T05:51:44.770Z,98027.47
2023-08-03T05:54:47.472Z,98030.02
2023-08-03T05:57:41.496Z,98031.73
2023-08-03T06:00:28.064Z,98027.92
2023-08-03T06:03:04.939Z,98031.59
2023-08-03T06:05:51.466Z,98040.85
2023-08-03T09:16:39.154Z,98095.03
2023-08-03T09:19:09.621Z,98096.59
2023-08-03T09:30:15.276Z,98085.13
2023-08-03T09:35:23.907Z,98091.80
2023-08-03T09:37:56.381Z,98094.30
2023-08-03T09:40:24.244Z,98094.80
2023-08-03T09:42:55.868Z,98091.55
2023-08-03T09:47:56.824Z,98090.20
2023-08-03T09:50:26.247Z,98087.65
2023-08-03T09:52:59.944Z,98085.45
2023-08-03T09:55:37.330Z,98084.55
2023-08-03T09:58:08.998Z,98082.70
2023-08-03T10:00:38.378Z,98084.27
2023-08-03T10:03:11.396Z,98094.27
2023-08-03T10:05:47.241Z,98096.30
2023-08-03T10:09:25.673Z,98098.63
2023-08-03T10:12:20.226Z,98111.16
2023-08-03T10:14:52.298Z,98118.41
2023-08-03T10:17:21.537Z,98118.74
2023-08-03T10:19:49.588Z,98125.98
2023-08-03T10:22:17.203Z,98137.29
2023-08-03T10:25:22.661Z,98143.81
2023-08-03T10:28:20.017Z,98141.11
2023-08-03T10:31:17.621Z,98141.17
2023-08-03T10:33:46.775Z,98146.40
2023-08-03T10:36:32.280Z,98142.45
2023-08-03T10:39:08.258Z,98135.59
2023-08-03T10:41:47.221Z,98129.60
2023-08-03T10:44:13.987Z,98135.00
2023-08-03T10:46:52.052Z,98144.27
2023-08-03T10:49:19.126Z,98154.98
2023-08-03T10:52:26.386Z,98181.12
2023-08-03T10:54:56.106Z,98202.14
2023-08-03T10:57:29.739Z,98221.70
2023-08-03T11:00:19.817Z,98218.90
2023-08-03T11:02:49.870Z,98220.98
2023-08-03T11:05:27.199Z,98233.73
2023-08-03T11:07:56.098Z,98243.09
2023-08-03T11:10:25.448Z,98239.42
2023-08-03T11:12:56.310Z,98250.43
2023-08-03T11:15:27.400Z,98254.86
2023-08-03T11:17:55.296Z,98249.23
2023-08-03T11:20:22.401Z,98251.55
2023-08-03T11:22:54.966Z,98259.41
2023-08-03T11:25:23.575Z,98268.29
2023-08-03T11:27:54.736Z,98272.30
2023-08-03T11:30:21.790Z,98283.89
2023-08-03T11:32:48.543Z,98299.63
2023-08-03T11:35:18.068Z,98307.62
2023-08-03T11:37:44.773Z,98316.72
2023-08-03T11:40:15.680Z,98328.46
2023-08-03T11:42:45.375Z,98341.88
2023-08-03T11:45:13.502Z,98333.83
2023-08-03T11:51:02.410Z,98336.16
2023-08-03T11:53:34.601Z,98344.92
2023-08-03T11:56:05.450Z,98338.52
2023-08-03T11:58:32.246Z,98340.70
2023-08-03T12:01:05.899Z,98342.42
2023-08-03T12:03:38.494Z,98347.36
2023-08-03T12:08:56.335Z,98362.98
2023-08-03T12:11:25.261Z,98367.56
2023-08-03T12:13:52.756Z,98364.27
2023-08-03T12:16:19.500Z,98360.52
2023-08-03T12:18:50.984Z,98356.98
2023-08-03T12:21:18.695Z,98358.15
2023-08-03T12:23:46.427Z,98353.19
2023-08-03T12:26:13.876Z,98360.22
2023-08-03T12:28:41.672Z,98361.56
2023-08-03T12:31:14.082Z,98359.30
2023-08-03T12:33:43.742Z,98368.09
2023-08-03T12:36:11.031Z,98376.63
2023-08-03T12:38:38.320Z,98381.46
2023-08-03T12:41:05.903Z,98387.34
2023-08-03T12:43:33.437Z,98390.61
2023-08-03T12:46:03.124Z,98387.58
2023-08-03T12:48:35.597Z,98395.89
2023-08-03T12:51:02.693Z,98399.10
2023-08-03T12:53:29.750Z,98400.64
2023-08-03T12:55:57.533Z,98404.08
2023-08-03T12:59:05.660Z,98402.22
2023-08-03T13:01:35.717Z,98398.44
2023-08-03T13:04:09.497Z,98399.93
2023-08-03T13:09:49.867Z,98395.92
2023-08-03T13:12:17.108Z,98400.30
2023-08-03T13:18:15.054Z,98405.73
2023-08-03T13:21:08.774Z,98401.94
2023-08-03T13:23:35.604Z,98393.52
2023-08-03T13:26:37.892Z,98388.77
2023-08-03T13:29:05.472Z,98363.23
2023-08-03T13:31:33.966Z,98355.33
2023-08-03T13:34:01.211Z,98357.05
2023-08-03T13:36:28.173Z,98341.89
2023-08-03T13:38:55.972Z,98330.92
2023-08-03T13:41:23.891Z,98319.52
2023-08-03T13:43:51.314Z,98312.88
2023-08-03T13:46:18.195Z,98310.58
2023-08-03T13:48:47.719Z,98322.92
2023-08-03T13:51:14.653Z,98322.20
2023-08-03T13:53:44.258Z,98317.52
2023-08-03T13:56:10.965Z,98311.52
2023-08-03T14:03:38.801Z,98337.42
2023-08-03T14:09:12.078Z,98333.35
2023-08-03T14:11:26.458Z,98319.48
2023-08-03T17:01:09.564Z,98254.94
2023-08-03T17:09:58.268Z,98276.84
2023-08-03T17:12:30.271Z,98280.90
2023-08-03T17:14:58.465Z,98279.36
2023-08-03T17:17:27.460Z,98277.11
2023-08-03T17:19:54.475Z,98290.41
2023-08-03T17:22:21.360Z,98298.26
2023-08-03T17:24:53.401Z,98286.90
2023-08-03T17:27:21.158Z,98291.65
2023-08-03T17:30:33.195Z,98295.60
2023-08-03T17:33:06.760Z,98292.40
2023-08-03T17:35:37.782Z,98296.14
2023-08-03T17:38:05.254Z,98292.09
2023-08-03T17:40:35.007Z,98276.44
2023-08-03T17:43:06.692Z,98275.04
2023-08-03T17:45:39.111Z,98285.42
2023-08-03T17:48:06.459Z,98295.02
2023-08-03T17:51:09.984Z,98278.54
2023-08-03T17:53:40.597Z,98288.15
2023-08-03T17:56:11.227Z,98277.11
2023-08-03T18:06:44.286Z,98332.69
2023-08-03T18:09:26.169Z,98300.05
2023-08-03T18:12:16.436Z,98312.30
2023-08-03T18:14:43.312Z,98325.09
2023-08-03T18:17:09.966Z,98328.85
2023-08-03T18:19:37.269Z,98333.27
2023-08-03T18:22:09.682Z,98324.66
2023-08-03T18:24:37.168Z,98326.98
2023-08-03T18:27:04.508Z,98316.19
